Terminal Aerodrome Forecast
Issued by NWS Louisville, KY

Home | Current Version | Previous Version | Text Only | Print | Product List | Glossary On
Versions: 1 2 3 4 5 6 7 8 9 10 11 12 13 14 15 16 17 18 19 20 21 22
000
FTUS43 KLMK 151700
TAFSDF
TAF
KSDF 151728Z 1518/1624 20005KT P6SM SCT050 BKN200
     FM160100 23004KT P6SM VCSH BKN040
     FM160800 33004KT P6SM SCT015 BKN025
     FM160900 34007KT P6SM BKN015 OVC025
     FM161500 36008KT P6SM BKN025
     FM161800 36007KT P6SM BKN035=

USA.gov is the U.S. government's official web portal to all federal, state and local government web resources and services.